sensor_id;sensor_type;location;lat;lon;timestamp;temperature;humidity
18948;DHT22;9607;51.600;7.558;2022-12-07T00:01:45;5.60;99.90
18948;DHT22;9607;51.600;7.558;2022-12-07T00:04:14;5.60;99.90
18948;DHT22;9607;51.600;7.558;2022-12-07T00:06:42;5.60;99.90
18948;DHT22;9607;51.600;7.558;2022-12-07T00:09:11;5.60;99.90
18948;DHT22;9607;51.600;7.558;2022-12-07T00:11:39;5.60;99.90
18948;DHT22;9607;51.600;7.558;2022-12-07T00:14:07;5.60;99.90
18948;DHT22;9607;51.600;7.558;2022-12-07T00:16:34;5.60;99.90
18948;DHT22;9607;51.600;7.558;2022-12-07T00:19:03;5.70;99.90
18948;DHT22;9607;51.600;7.558;2022-12-07T00:21:32;5.60;99.90
18948;DHT22;9607;51.600;7.558;2022-12-07T00:24:00;5.70;99.90
18948;DHT22;9607;51.600;7.558;2022-12-07T00:26:29;5.70;99.90
18948;DHT22;9607;51.600;7.558;2022-12-07T00:28:59;5.60;99.90
18948;DHT22;9607;51.600;7.558;2022-12-07T00:31:29;5.70;99.90
18948;DHT22;9607;51.600;7.558;2022-12-07T00:33:57;5.70;99.90
18948;DHT22;9607;51.600;7.558;2022-12-07T00:36:25;5.70;99.90
18948;DHT22;9607;51.600;7.558;2022-12-07T00:38:53;5.70;99.90
18948;DHT22;9607;51.600;7.558;2022-12-07T00:41:21;5.70;99.90
18948;DHT22;9607;51.600;7.558;2022-12-07T00:43:49;5.70;99.90
18948;DHT22;9607;51.600;7.558;2022-12-07T00:46:16;5.70;99.90
18948;DHT22;9607;51.600;7.558;2022-12-07T00:48:44;5.70;99.90
18948;DHT22;9607;51.600;7.558;2022-12-07T00:51:12;5.70;99.90
18948;DHT22;9607;51.600;7.558;2022-12-07T00:53:41;5.70;99.90
18948;DHT22;9607;51.600;7.558;2022-12-07T00:56:09;5.70;99.90
18948;DHT22;9607;51.600;7.558;2022-12-07T00:58:36;5.70;99.90
18948;DHT22;9607;51.600;7.558;2022-12-07T01:01:04;5.70;99.90
18948;DHT22;9607;51.600;7.558;2022-12-07T01:03:31;5.70;99.90
18948;DHT22;9607;51.600;7.558;2022-12-07T01:05:59;5.70;99.90
18948;DHT22;9607;51.600;7.558;2022-12-07T01:08:27;5.70;99.90
18948;DHT22;9607;51.600;7.558;2022-12-07T01:10:59;5.70;99.90
18948;DHT22;9607;51.600;7.558;2022-12-07T01:13:27;5.70;99.90
18948;DHT22;9607;51.600;7.558;2022-12-07T01:15:57;5.60;99.90
18948;DHT22;9607;51.600;7.558;2022-12-07T01:18:25;5.60;99.90
18948;DHT22;9607;51.600;7.558;2022-12-07T01:20:59;5.70;99.90
18948;DHT22;9607;51.600;7.558;2022-12-07T01:23:26;5.60;99.90
18948;DHT22;9607;51.600;7.558;2022-12-07T01:25:56;5.60;99.90
18948;DHT22;9607;51.600;7.558;2022-12-07T01:28:25;5.60;99.90
18948;DHT22;9607;51.600;7.558;2022-12-07T01:30:57;5.50;99.90
18948;DHT22;9607;51.600;7.558;2022-12-07T01:33:24;5.50;99.90
18948;DHT22;9607;51.600;7.558;2022-12-07T01:35:50;5.50;99.90
18948;DHT22;9607;51.600;7.558;2022-12-07T01:38:17;5.50;99.90
18948;DHT22;9607;51.600;7.558;2022-12-07T01:40:44;5.50;99.90
18948;DHT22;9607;51.600;7.558;2022-12-07T01:43:15;5.50;99.90
18948;DHT22;9607;51.600;7.558;2022-12-07T01:45:45;5.60;99.90
18948;DHT22;9607;51.600;7.558;2022-12-07T01:48:14;5.50;99.90
18948;DHT22;9607;51.600;7.558;2022-12-07T01:50:45;5.50;99.90
18948;DHT22;9607;51.600;7.558;2022-12-07T01:53:14;5.50;99.90
18948;DHT22;9607;51.600;7.558;2022-12-07T01:55:43;5.50;99.90
18948;DHT22;9607;51.600;7.558;2022-12-07T01:58:12;5.50;99.90
18948;DHT22;9607;51.600;7.558;2022-12-07T02:00:41;5.50;99.90
18948;DHT22;9607;51.600;7.558;2022-12-07T02:03:13;5.50;99.90
18948;DHT22;9607;51.600;7.558;2022-12-07T02:05:42;5.40;99.90
18948;DHT22;9607;51.600;7.558;2022-12-07T02:08:11;5.40;99.90
18948;DHT22;9607;51.600;7.558;2022-12-07T02:10:42;5.40;99.90
18948;DHT22;9607;51.600;7.558;2022-12-07T02:13:12;5.40;99.90
18948;DHT22;9607;51.600;7.558;2022-12-07T02:15:46;5.40;99.90
18948;DHT22;9607;51.600;7.558;2022-12-07T02:18:23;5.40;99.90
18948;DHT22;9607;51.600;7.558;2022-12-07T02:20:56;5.40;99.90
18948;DHT22;9607;51.600;7.558;2022-12-07T02:23:59;5.30;99.90
18948;DHT22;9607;51.600;7.558;2022-12-07T02:26:48;5.30;99.90
18948;DHT22;9607;51.600;7.558;2022-12-07T02:29:23;5.30;99.90
18948;DHT22;9607;51.600;7.558;2022-12-07T02:31:56;5.30;99.90
18948;DHT22;9607;51.600;7.558;2022-12-07T02:34:32;5.30;99.90
18948;DHT22;9607;51.600;7.558;2022-12-07T02:37:06;5.30;99.90
18948;DHT22;9607;51.600;7.558;2022-12-07T02:39:41;5.30;99.90
18948;DHT22;9607;51.600;7.558;2022-12-07T02:42:13;5.30;99.90
18948;DHT22;9607;51.600;7.558;2022-12-07T02:44:44;5.30;99.90
18948;DHT22;9607;51.600;7.558;2022-12-07T02:47:15;5.30;99.90
18948;DHT22;9607;51.600;7.558;2022-12-07T02:49:43;5.30;99.90
18948;DHT22;9607;51.600;7.558;2022-12-07T02:52:10;5.30;99.90
18948;DHT22;9607;51.600;7.558;2022-12-07T02:54:37;5.20;99.90
18948;DHT22;9607;51.600;7.558;2022-12-07T02:57:14;5.30;99.90
18948;DHT22;9607;51.600;7.558;2022-12-07T02:59:52;5.20;99.90
18948;DHT22;9607;51.600;7.558;2022-12-07T03:02:31;5.10;99.90
18948;DHT22;9607;51.600;7.558;2022-12-07T03:05:13;5.10;99.90
18948;DHT22;9607;51.600;7.558;2022-12-07T03:07:49;5.00;99.90
18948;DHT22;9607;51.600;7.558;2022-12-07T03:10:24;4.90;99.90
18948;DHT22;9607;51.600;7.558;2022-12-07T03:13:00;4.90;99.90
18948;DHT22;9607;51.600;7.558;2022-12-07T03:15:33;4.70;99.90
18948;DHT22;9607;51.600;7.558;2022-12-07T03:18:07;4.70;99.90
18948;DHT22;9607;51.600;7.558;2022-12-07T03:20:39;4.60;99.90
18948;DHT22;9607;51.600;7.558;2022-12-07T03:23:08;4.60;99.90
18948;DHT22;9607;51.600;7.558;2022-12-07T03:25:42;4.50;99.90
18948;DHT22;9607;51.600;7.558;2022-12-07T03:28:14;4.50;99.90
18948;DHT22;9607;51.600;7.558;2022-12-07T03:30:47;4.40;99.90
18948;DHT22;9607;51.600;7.558;2022-12-07T03:33:19;4.40;99.90
18948;DHT22;9607;51.600;7.558;2022-12-07T03:35:50;4.30;99.90
18948;DHT22;9607;51.600;7.558;2022-12-07T03:38:21;4.30;99.90
18948;DHT22;9607;51.600;7.558;2022-12-07T03:40:54;4.20;99.90
18948;DHT22;9607;51.600;7.558;2022-12-07T03:43:25;4.20;99.90
18948;DHT22;9607;51.600;7.558;2022-12-07T03:46:03;4.20;99.90
18948;DHT22;9607;51.600;7.558;2022-12-07T03:48:36;4.10;99.90
18948;DHT22;9607;51.600;7.558;2022-12-07T03:51:10;4.10;99.90
18948;DHT22;9607;51.600;7.558;2022-12-07T03:53:43;4.10;99.90
18948;DHT22;9607;51.600;7.558;2022-12-07T03:56:12;4.10;99.90
18948;DHT22;9607;51.600;7.558;2022-12-07T03:58:40;4.00;99.90
18948;DHT22;9607;51.600;7.558;2022-12-07T04:01:09;4.00;99.90
18948;DHT22;9607;51.600;7.558;2022-12-07T04:03:44;4.00;99.90
18948;DHT22;9607;51.600;7.558;2022-12-07T04:06:11;4.00;99.90
18948;DHT22;9607;51.600;7.558;2022-12-07T04:08:38;4.00;99.90
18948;DHT22;9607;51.600;7.558;2022-12-07T04:11:05;4.00;99.90
18948;DHT22;9607;51.600;7.558;2022-12-07T04:13:32;4.00;99.90
18948;DHT22;9607;51.600;7.558;2022-12-07T04:16:23;4.00;99.90
18948;DHT22;9607;51.600;7.558;2022-12-07T04:18:50;4.00;99.90
18948;DHT22;9607;51.600;7.558;2022-12-07T04:21:17;4.00;99.90
18948;DHT22;9607;51.600;7.558;2022-12-07T04:23:44;4.00;99.90
18948;DHT22;9607;51.600;7.558;2022-12-07T04:26:10;4.00;99.90
18948;DHT22;9607;51.600;7.558;2022-12-07T04:28:37;3.90;99.90
18948;DHT22;9607;51.600;7.558;2022-12-07T04:31:04;3.90;99.90
18948;DHT22;9607;51.600;7.558;2022-12-07T04:33:33;3.90;99.90
18948;DHT22;9607;51.600;7.558;2022-12-07T04:35:59;3.80;99.90
18948;DHT22;9607;51.600;7.558;2022-12-07T04:38:26;3.80;99.90
18948;DHT22;9607;51.600;7.558;2022-12-07T04:40:53;3.80;99.90
18948;DHT22;9607;51.600;7.558;2022-12-07T04:43:20;3.70;99.90
18948;DHT22;9607;51.600;7.558;2022-12-07T04:45:47;3.70;99.90
18948;DHT22;9607;51.600;7.558;2022-12-07T04:48:15;3.70;99.90
18948;DHT22;9607;51.600;7.558;2022-12-07T04:50:48;3.80;99.90
18948;DHT22;9607;51.600;7.558;2022-12-07T04:53:15;3.80;99.90
18948;DHT22;9607;51.600;7.558;2022-12-07T04:55:42;3.80;99.90
18948;DHT22;9607;51.600;7.558;2022-12-07T04:58:09;3.90;99.90
18948;DHT22;9607;51.600;7.558;2022-12-07T05:00:36;3.90;99.90
18948;DHT22;9607;51.600;7.558;2022-12-07T05:03:02;3.90;99.90
18948;DHT22;9607;51.600;7.558;2022-12-07T05:05:29;3.90;99.90
18948;DHT22;9607;51.600;7.558;2022-12-07T05:07:57;3.90;99.90
18948;DHT22;9607;51.600;7.558;2022-12-07T05:10:24;3.90;99.90
18948;DHT22;9607;51.600;7.558;2022-12-07T05:12:51;3.90;99.90
18948;DHT22;9607;51.600;7.558;2022-12-07T05:15:18;3.90;99.90
18948;DHT22;9607;51.600;7.558;2022-12-07T05:17:45;3.90;99.90
18948;DHT22;9607;51.600;7.558;2022-12-07T05:20:12;3.90;99.90
18948;DHT22;9607;51.600;7.558;2022-12-07T05:22:43;3.90;99.90
18948;DHT22;9607;51.600;7.558;2022-12-07T05:25:19;3.80;99.90
18948;DHT22;9607;51.600;7.558;2022-12-07T05:28:00;3.80;99.90
18948;DHT22;9607;51.600;7.558;2022-12-07T05:30:27;3.80;99.90
18948;DHT22;9607;51.600;7.558;2022-12-07T05:32:54;3.80;99.90
18948;DHT22;9607;51.600;7.558;2022-12-07T05:35:21;3.80;99.90
18948;DHT22;9607;51.600;7.558;2022-12-07T05:37:48;3.80;99.90
18948;DHT22;9607;51.600;7.558;2022-12-07T05:40:20;3.80;99.90
18948;DHT22;9607;51.600;7.558;2022-12-07T05:42:47;3.80;99.90
18948;DHT22;9607;51.600;7.558;2022-12-07T05:45:13;3.80;99.90
18948;DHT22;9607;51.600;7.558;2022-12-07T05:47:40;3.80;99.90
18948;DHT22;9607;51.600;7.558;2022-12-07T05:50:08;3.80;99.90
18948;DHT22;9607;51.600;7.558;2022-12-07T05:52:35;3.80;99.90
18948;DHT22;9607;51.600;7.558;2022-12-07T05:55:01;3.80;99.90
18948;DHT22;9607;51.600;7.558;2022-12-07T05:57:30;3.80;99.90
18948;DHT22;9607;51.600;7.558;2022-12-07T05:59:56;3.90;99.90
18948;DHT22;9607;51.600;7.558;2022-12-07T06:02:22;3.90;99.90
18948;DHT22;9607;51.600;7.558;2022-12-07T06:04:49;3.90;99.90
18948;DHT22;9607;51.600;7.558;2022-12-07T06:07:16;3.90;99.90
18948;DHT22;9607;51.600;7.558;2022-12-07T06:09:44;3.90;99.90
18948;DHT22;9607;51.600;7.558;2022-12-07T06:12:12;3.80;99.90
18948;DHT22;9607;51.600;7.558;2022-12-07T06:14:58;3.90;99.90
18948;DHT22;9607;51.600;7.558;2022-12-07T06:17:24;3.90;99.90
18948;DHT22;9607;51.600;7.558;2022-12-07T06:19:51;3.90;99.90
18948;DHT22;9607;51.600;7.558;2022-12-07T06:22:18;3.90;99.90
18948;DHT22;9607;51.600;7.558;2022-12-07T06:24:45;3.90;99.90
18948;DHT22;9607;51.600;7.558;2022-12-07T06:27:12;3.90;99.90
18948;DHT22;9607;51.600;7.558;2022-12-07T06:29:39;3.90;99.90
18948;DHT22;9607;51.600;7.558;2022-12-07T06:32:07;3.90;99.90
18948;DHT22;9607;51.600;7.558;2022-12-07T06:34:34;3.90;99.90
18948;DHT22;9607;51.600;7.558;2022-12-07T06:37:01;3.80;99.90
18948;DHT22;9607;51.600;7.558;2022-12-07T06:39:29;3.80;99.90
18948;DHT22;9607;51.600;7.558;2022-12-07T06:41:56;3.80;99.90
18948;DHT22;9607;51.600;7.558;2022-12-07T06:44:23;3.80;99.90
18948;DHT22;9607;51.600;7.558;2022-12-07T06:46:51;3.80;99.90
18948;DHT22;9607;51.600;7.558;2022-12-07T06:49:19;3.80;99.90
18948;DHT22;9607;51.600;7.558;2022-12-07T06:51:46;3.90;99.90
18948;DHT22;9607;51.600;7.558;2022-12-07T06:54:14;3.80;99.90
18948;DHT22;9607;51.600;7.558;2022-12-07T06:56:41;3.80;99.90
18948;DHT22;9607;51.600;7.558;2022-12-07T06:59:10;3.80;99.90
18948;DHT22;9607;51.600;7.558;2022-12-07T07:01:37;3.80;99.90
18948;DHT22;9607;51.600;7.558;2022-12-07T07:04:05;3.80;99.90
18948;DHT22;9607;51.600;7.558;2022-12-07T07:06:33;3.70;99.90
18948;DHT22;9607;51.600;7.558;2022-12-07T07:09:00;3.70;99.90
18948;DHT22;9607;51.600;7.558;2022-12-07T07:11:27;3.70;99.90
18948;DHT22;9607;51.600;7.558;2022-12-07T07:13:54;3.70;99.90
18948;DHT22;9607;51.600;7.558;2022-12-07T07:16:27;3.70;99.90
18948;DHT22;9607;51.600;7.558;2022-12-07T07:18:54;3.80;99.90
18948;DHT22;9607;51.600;7.558;2022-12-07T07:21:21;3.80;99.90
18948;DHT22;9607;51.600;7.558;2022-12-07T07:23:49;3.80;99.90
18948;DHT22;9607;51.600;7.558;2022-12-07T07:26:16;3.80;99.90
18948;DHT22;9607;51.600;7.558;2022-12-07T07:28:43;3.80;99.90
18948;DHT22;9607;51.600;7.558;2022-12-07T07:31:10;3.80;99.90
18948;DHT22;9607;51.600;7.558;2022-12-07T07:33:37;3.80;99.90
18948;DHT22;9607;51.600;7.558;2022-12-07T07:36:05;3.70;99.90
18948;DHT22;9607;51.600;7.558;2022-12-07T07:38:32;3.70;99.90
18948;DHT22;9607;51.600;7.558;2022-12-07T07:41:00;3.70;99.90
18948;DHT22;9607;51.600;7.558;2022-12-07T07:43:27;3.60;99.90
18948;DHT22;9607;51.600;7.558;2022-12-07T07:45:54;3.60;99.90
18948;DHT22;9607;51.600;7.558;2022-12-07T07:48:21;3.60;99.90
18948;DHT22;9607;51.600;7.558;2022-12-07T07:50:50;3.70;99.90
18948;DHT22;9607;51.600;7.558;2022-12-07T07:53:17;3.70;99.90
18948;DHT22;9607;51.600;7.558;2022-12-07T07:55:50;3.70;99.90
18948;DHT22;9607;51.600;7.558;2022-12-07T07:58:19;3.70;99.90
18948;DHT22;9607;51.600;7.558;2022-12-07T08:00:46;3.80;99.90
18948;DHT22;9607;51.600;7.558;2022-12-07T08:03:13;3.80;99.90
18948;DHT22;9607;51.600;7.558;2022-12-07T08:05:39;3.80;99.90
18948;DHT22;9607;51.600;7.558;2022-12-07T08:08:06;3.80;99.90
18948;DHT22;9607;51.600;7.558;2022-12-07T08:10:33;3.80;99.90
18948;DHT22;9607;51.600;7.558;2022-12-07T08:13:00;3.80;99.90
18948;DHT22;9607;51.600;7.558;2022-12-07T08:15:42;3.80;99.90
18948;DHT22;9607;51.600;7.558;2022-12-07T08:18:09;3.70;99.90
18948;DHT22;9607;51.600;7.558;2022-12-07T08:20:37;3.70;99.90
18948;DHT22;9607;51.600;7.558;2022-12-07T08:23:05;3.70;99.90
18948;DHT22;9607;51.600;7.558;2022-12-07T08:25:33;3.70;99.90
18948;DHT22;9607;51.600;7.558;2022-12-07T08:28:00;3.70;99.90
18948;DHT22;9607;51.600;7.558;2022-12-07T08:30:28;3.70;99.90
18948;DHT22;9607;51.600;7.558;2022-12-07T08:32:56;3.80;99.90
18948;DHT22;9607;51.600;7.558;2022-12-07T08:35:23;3.80;99.90
18948;DHT22;9607;51.600;7.558;2022-12-07T08:37:51;3.90;99.90
18948;DHT22;9607;51.600;7.558;2022-12-07T08:40:18;4.00;99.90
18948;DHT22;9607;51.600;7.558;2022-12-07T08:42:49;4.10;99.90
18948;DHT22;9607;51.600;7.558;2022-12-07T08:45:17;4.10;99.90
18948;DHT22;9607;51.600;7.558;2022-12-07T08:47:49;4.20;99.90
18948;DHT22;9607;51.600;7.558;2022-12-07T08:50:18;4.30;99.90
18948;DHT22;9607;51.600;7.558;2022-12-07T08:52:48;4.40;99.90
18948;DHT22;9607;51.600;7.558;2022-12-07T08:55:17;4.50;99.90
18948;DHT22;9607;51.600;7.558;2022-12-07T08:57:45;4.50;99.90
18948;DHT22;9607;51.600;7.558;2022-12-07T09:00:13;4.50;99.90
18948;DHT22;9607;51.600;7.558;2022-12-07T09:02:40;4.50;99.90
18948;DHT22;9607;51.600;7.558;2022-12-07T09:05:10;4.50;99.90
18948;DHT22;9607;51.600;7.558;2022-12-07T09:07:38;4.50;99.90
18948;DHT22;9607;51.600;7.558;2022-12-07T09:10:06;4.50;99.90
18948;DHT22;9607;51.600;7.558;2022-12-07T09:12:33;4.40;99.90
18948;DHT22;9607;51.600;7.558;2022-12-07T09:15:00;4.40;99.90
18948;DHT22;9607;51.600;7.558;2022-12-07T09:17:32;4.30;99.90
18948;DHT22;9607;51.600;7.558;2022-12-07T09:19:59;4.30;99.90
18948;DHT22;9607;51.600;7.558;2022-12-07T09:22:28;4.20;99.90
18948;DHT22;9607;51.600;7.558;2022-12-07T09:24:57;4.30;99.90
18948;DHT22;9607;51.600;7.558;2022-12-07T09:27:24;4.20;99.90
18948;DHT22;9607;51.600;7.558;2022-12-07T09:29:50;4.20;99.90
18948;DHT22;9607;51.600;7.558;2022-12-07T09:32:17;4.30;99.90
18948;DHT22;9607;51.600;7.558;2022-12-07T09:34:44;4.30;99.90
18948;DHT22;9607;51.600;7.558;2022-12-07T09:37:11;4.30;99.90
18948;DHT22;9607;51.600;7.558;2022-12-07T09:39:39;4.40;99.90
18948;DHT22;9607;51.600;7.558;2022-12-07T09:42:08;4.40;99.90
18948;DHT22;9607;51.600;7.558;2022-12-07T09:44:36;4.40;99.90
18948;DHT22;9607;51.600;7.558;2022-12-07T09:47:03;4.40;99.90
18948;DHT22;9607;51.600;7.558;2022-12-07T09:49:32;4.40;99.90
18948;DHT22;9607;51.600;7.558;2022-12-07T09:52:01;4.50;99.90
18948;DHT22;9607;51.600;7.558;2022-12-07T09:54:29;4.50;99.90
18948;DHT22;9607;51.600;7.558;2022-12-07T09:56:57;4.50;99.90
18948;DHT22;9607;51.600;7.558;2022-12-07T09:59:26;4.60;99.90
18948;DHT22;9607;51.600;7.558;2022-12-07T10:01:53;4.70;99.90
18948;DHT22;9607;51.600;7.558;2022-12-07T10:04:22;4.80;99.90
18948;DHT22;9607;51.600;7.558;2022-12-07T10:06:51;5.00;99.90
18948;DHT22;9607;51.600;7.558;2022-12-07T10:09:20;5.10;99.90
18948;DHT22;9607;51.600;7.558;2022-12-07T10:12:01;5.20;99.90
18948;DHT22;9607;51.600;7.558;2022-12-07T10:14:33;5.40;99.90
18948;DHT22;9607;51.600;7.558;2022-12-07T10:17:00;5.50;99.90
18948;DHT22;9607;51.600;7.558;2022-12-07T10:19:29;5.60;99.90
18948;DHT22;9607;51.600;7.558;2022-12-07T10:22:01;5.60;99.90
18948;DHT22;9607;51.600;7.558;2022-12-07T10:24:28;5.70;99.90
18948;DHT22;9607;51.600;7.558;2022-12-07T10:26:56;5.70;99.90
18948;DHT22;9607;51.600;7.558;2022-12-07T10:29:24;5.70;99.90
18948;DHT22;9607;51.600;7.558;2022-12-07T10:31:59;5.70;99.90
18948;DHT22;9607;51.600;7.558;2022-12-07T10:34:28;5.70;99.90
18948;DHT22;9607;51.600;7.558;2022-12-07T10:37:14;5.80;99.90
18948;DHT22;9607;51.600;7.558;2022-12-07T10:39:42;5.80;99.90
18948;DHT22;9607;51.600;7.558;2022-12-07T10:42:17;6.00;99.90
18948;DHT22;9607;51.600;7.558;2022-12-07T10:44:44;6.10;99.90
18948;DHT22;9607;51.600;7.558;2022-12-07T10:47:34;6.20;99.90
18948;DHT22;9607;51.600;7.558;2022-12-07T10:53:31;6.50;99.90
18948;DHT22;9607;51.600;7.558;2022-12-07T10:56:23;6.60;99.90
18948;DHT22;9607;51.600;7.558;2022-12-07T10:59:06;6.60;99.90
18948;DHT22;9607;51.600;7.558;2022-12-07T11:01:41;6.50;99.90
18948;DHT22;9607;51.600;7.558;2022-12-07T11:04:24;6.40;99.90
18948;DHT22;9607;51.600;7.558;2022-12-07T11:06:59;6.40;99.90
18948;DHT22;9607;51.600;7.558;2022-12-07T11:09:49;6.40;99.90
18948;DHT22;9607;51.600;7.558;2022-12-07T11:12:26;6.30;99.90
18948;DHT22;9607;51.600;7.558;2022-12-07T11:14:57;6.30;99.90
18948;DHT22;9607;51.600;7.558;2022-12-07T11:17:34;6.50;99.90
18948;DHT22;9607;51.600;7.558;2022-12-07T11:20:15;6.60;99.90
18948;DHT22;9607;51.600;7.558;2022-12-07T11:22:51;6.70;99.90
18948;DHT22;9607;51.600;7.558;2022-12-07T11:25:25;6.70;99.90
18948;DHT22;9607;51.600;7.558;2022-12-07T11:28:06;6.60;99.90
18948;DHT22;9607;51.600;7.558;2022-12-07T11:30:42;6.50;99.90
18948;DHT22;9607;51.600;7.558;2022-12-07T11:33:17;6.50;99.90
18948;DHT22;9607;51.600;7.558;2022-12-07T11:35:57;6.50;99.90
18948;DHT22;9607;51.600;7.558;2022-12-07T11:38:36;6.60;99.90
18948;DHT22;9607;51.600;7.558;2022-12-07T11:41:06;6.70;99.90
18948;DHT22;9607;51.600;7.558;2022-12-07T11:43:54;6.80;99.90
18948;DHT22;9607;51.600;7.558;2022-12-07T11:46:25;6.80;99.90
18948;DHT22;9607;51.600;7.558;2022-12-07T11:48:58;6.80;99.90
18948;DHT22;9607;51.600;7.558;2022-12-07T11:51:28;6.80;99.90
18948;DHT22;9607;51.600;7.558;2022-12-07T11:54:02;6.80;99.90
18948;DHT22;9607;51.600;7.558;2022-12-07T11:56:30;6.80;99.90
18948;DHT22;9607;51.600;7.558;2022-12-07T11:59:08;6.80;99.90
18948;DHT22;9607;51.600;7.558;2022-12-07T12:01:44;6.70;99.90
18948;DHT22;9607;51.600;7.558;2022-12-07T12:04:25;6.80;99.90
18948;DHT22;9607;51.600;7.558;2022-12-07T12:06:55;6.90;99.90
18948;DHT22;9607;51.600;7.558;2022-12-07T12:09:26;7.00;99.90
18948;DHT22;9607;51.600;7.558;2022-12-07T12:12:18;7.00;99.90
18948;DHT22;9607;51.600;7.558;2022-12-07T12:15:01;7.10;99.90
18948;DHT22;9607;51.600;7.558;2022-12-07T12:17:50;7.10;99.90
18948;DHT22;9607;51.600;7.558;2022-12-07T12:20:27;6.90;99.90
18948;DHT22;9607;51.600;7.558;2022-12-07T12:23:01;6.80;99.90
18948;DHT22;9607;51.600;7.558;2022-12-07T12:25:37;6.80;99.90
18948;DHT22;9607;51.600;7.558;2022-12-07T12:28:05;6.70;99.90
18948;DHT22;9607;51.600;7.558;2022-12-07T12:30:36;6.70;99.90
18948;DHT22;9607;51.600;7.558;2022-12-07T12:33:11;6.70;99.90
18948;DHT22;9607;51.600;7.558;2022-12-07T12:35:39;6.60;99.90
18948;DHT22;9607;51.600;7.558;2022-12-07T12:38:31;6.70;99.90
18948;DHT22;9607;51.600;7.558;2022-12-07T12:40:59;6.70;99.90
18948;DHT22;9607;51.600;7.558;2022-12-07T12:43:50;6.80;99.90
18948;DHT22;9607;51.600;7.558;2022-12-07T12:46:50;6.80;99.90
18948;DHT22;9607;51.600;7.558;2022-12-07T12:52:58;6.80;99.90
18948;DHT22;9607;51.600;7.558;2022-12-07T12:55:53;6.90;99.90
18948;DHT22;9607;51.600;7.558;2022-12-07T12:58:35;7.00;99.90
18948;DHT22;9607;51.600;7.558;2022-12-07T13:04:28;7.00;99.90
18948;DHT22;9607;51.600;7.558;2022-12-07T13:06:57;7.00;99.90
18948;DHT22;9607;51.600;7.558;2022-12-07T13:09:27;7.10;99.90
18948;DHT22;9607;51.600;7.558;2022-12-07T13:12:00;7.10;99.90
18948;DHT22;9607;51.600;7.558;2022-12-07T13:14:43;7.10;99.90
18948;DHT22;9607;51.600;7.558;2022-12-07T13:17:10;7.10;99.90
18948;DHT22;9607;51.600;7.558;2022-12-07T13:19:58;7.10;99.90
18948;DHT22;9607;51.600;7.558;2022-12-07T13:22:50;7.00;99.90
18948;DHT22;9607;51.600;7.558;2022-12-07T13:25:23;6.90;99.90
18948;DHT22;9607;51.600;7.558;2022-12-07T13:27:57;6.90;99.90
18948;DHT22;9607;51.600;7.558;2022-12-07T13:30:29;6.70;99.90
18948;DHT22;9607;51.600;7.558;2022-12-07T13:32:58;6.70;99.90
18948;DHT22;9607;51.600;7.558;2022-12-07T13:35:33;6.60;99.90
18948;DHT22;9607;51.600;7.558;2022-12-07T13:38:04;6.60;99.90
18948;DHT22;9607;51.600;7.558;2022-12-07T13:40:31;6.60;99.90
18948;DHT22;9607;51.600;7.558;2022-12-07T13:43:01;6.50;99.90
18948;DHT22;9607;51.600;7.558;2022-12-07T13:45:29;6.50;99.90
18948;DHT22;9607;51.600;7.558;2022-12-07T13:48:18;6.40;99.90
18948;DHT22;9607;51.600;7.558;2022-12-07T13:50:53;6.40;99.90
18948;DHT22;9607;51.600;7.558;2022-12-07T13:53:22;6.40;99.90
18948;DHT22;9607;51.600;7.558;2022-12-07T13:55:50;6.40;99.90
18948;DHT22;9607;51.600;7.558;2022-12-07T13:58:18;6.40;99.90
18948;DHT22;9607;51.600;7.558;2022-12-07T14:00:45;6.40;99.90
18948;DHT22;9607;51.600;7.558;2022-12-07T14:03:30;6.30;99.90
18948;DHT22;9607;51.600;7.558;2022-12-07T14:06:14;6.20;99.90
18948;DHT22;9607;51.600;7.558;2022-12-07T14:08:42;6.10;99.90
18948;DHT22;9607;51.600;7.558;2022-12-07T14:11:13;6.00;99.90
18948;DHT22;9607;51.600;7.558;2022-12-07T14:13:51;6.00;99.90
18948;DHT22;9607;51.600;7.558;2022-12-07T14:16:24;5.90;99.90
18948;DHT22;9607;51.600;7.558;2022-12-07T14:18:57;5.90;99.90
18948;DHT22;9607;51.600;7.558;2022-12-07T14:21:25;5.90;99.90
18948;DHT22;9607;51.600;7.558;2022-12-07T14:24:25;5.90;99.90
18948;DHT22;9607;51.600;7.558;2022-12-07T14:26:52;5.90;99.90
18948;DHT22;9607;51.600;7.558;2022-12-07T14:29:32;5.90;99.90
18948;DHT22;9607;51.600;7.558;2022-12-07T14:32:17;5.90;99.90
18948;DHT22;9607;51.600;7.558;2022-12-07T14:34:56;5.90;99.90
18948;DHT22;9607;51.600;7.558;2022-12-07T14:37:24;5.80;99.90
18948;DHT22;9607;51.600;7.558;2022-12-07T14:39:53;5.80;99.90
18948;DHT22;9607;51.600;7.558;2022-12-07T14:42:20;5.80;99.90
18948;DHT22;9607;51.600;7.558;2022-12-07T14:44:50;5.70;99.90
18948;DHT22;9607;51.600;7.558;2022-12-07T14:47:17;5.60;99.90
18948;DHT22;9607;51.600;7.558;2022-12-07T14:49:44;5.60;99.90
18948;DHT22;9607;51.600;7.558;2022-12-07T14:52:14;5.60;99.90
18948;DHT22;9607;51.600;7.558;2022-12-07T14:54:42;5.50;99.90
18948;DHT22;9607;51.600;7.558;2022-12-07T14:57:10;5.40;99.90
18948;DHT22;9607;51.600;7.558;2022-12-07T14:59:37;5.40;99.90
18948;DHT22;9607;51.600;7.558;2022-12-07T15:02:06;5.30;99.90
18948;DHT22;9607;51.600;7.558;2022-12-07T15:04:33;5.30;99.90
18948;DHT22;9607;51.600;7.558;2022-12-07T15:07:02;5.30;99.90
18948;DHT22;9607;51.600;7.558;2022-12-07T15:09:32;5.20;99.90
18948;DHT22;9607;51.600;7.558;2022-12-07T15:11:59;5.10;99.90
18948;DHT22;9607;51.600;7.558;2022-12-07T15:14:26;5.00;99.90
18948;DHT22;9607;51.600;7.558;2022-12-07T15:16:56;5.00;99.90
18948;DHT22;9607;51.600;7.558;2022-12-07T15:19:25;4.90;99.90
18948;DHT22;9607;51.600;7.558;2022-12-07T15:21:53;4.80;99.90
18948;DHT22;9607;51.600;7.558;2022-12-07T15:24:20;4.80;99.90
18948;DHT22;9607;51.600;7.558;2022-12-07T15:26:49;4.80;99.90
18948;DHT22;9607;51.600;7.558;2022-12-07T15:29:17;4.70;99.90
18948;DHT22;9607;51.600;7.558;2022-12-07T15:31:44;4.70;99.90
18948;DHT22;9607;51.600;7.558;2022-12-07T15:34:12;4.70;99.90
18948;DHT22;9607;51.600;7.558;2022-12-07T15:36:40;4.60;99.90
18948;DHT22;9607;51.600;7.558;2022-12-07T15:39:08;4.60;99.90
18948;DHT22;9607;51.600;7.558;2022-12-07T15:41:35;4.50;99.90
18948;DHT22;9607;51.600;7.558;2022-12-07T15:44:02;4.50;99.90
18948;DHT22;9607;51.600;7.558;2022-12-07T15:46:54;4.50;99.90
18948;DHT22;9607;51.600;7.558;2022-12-07T15:49:21;4.50;99.90
18948;DHT22;9607;51.600;7.558;2022-12-07T15:51:49;4.50;99.90
18948;DHT22;9607;51.600;7.558;2022-12-07T15:54:20;4.50;99.90
18948;DHT22;9607;51.600;7.558;2022-12-07T15:56:48;4.50;99.90
18948;DHT22;9607;51.600;7.558;2022-12-07T15:59:15;4.50;99.90
18948;DHT22;9607;51.600;7.558;2022-12-07T16:01:42;4.60;99.90
18948;DHT22;9607;51.600;7.558;2022-12-07T16:04:09;4.60;99.90
18948;DHT22;9607;51.600;7.558;2022-12-07T16:06:36;4.60;99.90
18948;DHT22;9607;51.600;7.558;2022-12-07T16:09:05;4.60;99.90
18948;DHT22;9607;51.600;7.558;2022-12-07T16:11:32;4.50;99.90
18948;DHT22;9607;51.600;7.558;2022-12-07T16:13:59;4.50;99.90
18948;DHT22;9607;51.600;7.558;2022-12-07T16:16:26;4.50;99.90
18948;DHT22;9607;51.600;7.558;2022-12-07T16:18:54;4.50;99.90
18948;DHT22;9607;51.600;7.558;2022-12-07T16:21:22;4.50;99.90
18948;DHT22;9607;51.600;7.558;2022-12-07T16:23:49;4.50;99.90
18948;DHT22;9607;51.600;7.558;2022-12-07T16:26:18;4.60;99.90
18948;DHT22;9607;51.600;7.558;2022-12-07T16:28:48;4.60;99.90
18948;DHT22;9607;51.600;7.558;2022-12-07T16:31:17;4.70;99.90
18948;DHT22;9607;51.600;7.558;2022-12-07T16:33:45;4.60;99.90
18948;DHT22;9607;51.600;7.558;2022-12-07T16:36:13;4.70;99.90